createdAt,value
2017-08-23T00:00:14.210Z,94475.51
2017-08-23T00:02:41.938Z,94474.84
2017-08-23T00:05:09.713Z,94473.97
2017-08-23T00:07:37.520Z,94479.54
2017-08-23T00:10:05.506Z,94473.07
2017-08-23T00:12:33.405Z,94481.11
2017-08-23T00:15:01.336Z,94481.86
2017-08-23T00:17:29.279Z,94483.31
2017-08-23T00:19:57.243Z,94486.50
2017-08-23T00:22:25.066Z,94485.30
2017-08-23T00:24:52.851Z,94488.02
2017-08-23T00:27:20.588Z,94485.05
2017-08-23T00:29:48.294Z,94487.73
2017-08-23T00:32:16.148Z,94484.20
2017-08-23T00:34:44.022Z,94485.00
2017-08-23T00:37:11.900Z,94482.60
2017-08-23T00:39:39.854Z,94480.08
2017-08-23T00:42:07.780Z,94475.77
2017-08-23T00:44:35.669Z,94477.44
2017-08-23T00:47:03.619Z,94478.31
2017-08-23T00:49:31.505Z,94484.89
2017-08-23T00:51:59.457Z,94485.25
2017-08-23T00:54:27.406Z,94487.79
2017-08-23T00:56:55.365Z,94487.20
2017-08-23T00:59:23.083Z,94481.60
2017-08-23T01:01:50.833Z,94483.08
2017-08-23T01:04:18.651Z,94477.84
2017-08-23T01:06:46.542Z,94477.33
2017-08-23T01:09:14.402Z,94479.02
2017-08-23T01:11:42.338Z,94475.48
2017-08-23T01:14:10.123Z,94479.77
2017-08-23T01:16:37.858Z,94478.66
2017-08-23T01:19:05.585Z,94478.22
2017-08-23T01:21:33.502Z,94474.17
2017-08-23T01:24:01.468Z,94479.38
2017-08-23T01:26:29.424Z,94480.06
2017-08-23T01:28:57.334Z,94476.66
2017-08-23T01:31:25.263Z,94468.48
2017-08-23T01:33:53.019Z,94471.19
2017-08-23T01:36:20.806Z,94467.25
2017-08-23T01:38:48.848Z,94470.77
2017-08-23T01:41:16.761Z,94474.11
2017-08-23T01:43:44.568Z,94475.77
2017-08-23T01:46:12.499Z,94479.11
2017-08-23T01:48:40.463Z,94477.88
2017-08-23T01:51:08.167Z,94475.61
2017-08-23T01:53:35.940Z,94476.52
2017-08-23T01:56:03.699Z,94478.29
2017-08-23T01:58:31.492Z,94478.32
2017-08-23T02:00:59.308Z,94476.77
2017-08-23T02:03:27.260Z,94475.56
2017-08-23T02:05:55.000Z,94474.19
2017-08-23T02:08:23.268Z,94477.40
2017-08-23T02:10:50.951Z,94476.44
2017-08-23T02:13:18.724Z,94472.98
2017-08-23T02:15:46.467Z,94476.36
2017-08-23T02:18:14.351Z,94471.27
2017-08-23T02:20:42.187Z,94475.64
2017-08-23T02:23:09.970Z,94478.23
2017-08-23T02:25:37.929Z,94476.53
2017-08-23T02:28:05.681Z,94472.79
2017-08-23T02:30:33.429Z,94477.48
2017-08-23T02:33:01.133Z,94469.92
2017-08-23T02:35:28.881Z,94474.42
2017-08-23T02:37:56.650Z,94469.16
2017-08-23T02:40:24.493Z,94467.45
2017-08-23T02:42:52.486Z,94483.27
2017-08-23T02:45:20.444Z,94483.00
2017-08-23T02:47:48.407Z,94478.33
2017-08-23T02:50:16.178Z,94470.48
2017-08-23T02:52:44.022Z,94470.98
2017-08-23T02:55:11.857Z,94466.47
2017-08-23T02:57:39.818Z,94469.07
2017-08-23T03:00:07.608Z,94471.03
2017-08-23T03:02:35.497Z,94468.02
2017-08-23T03:05:03.418Z,94464.72
2017-08-23T03:07:31.295Z,94468.63
2017-08-23T03:09:59.089Z,94474.16
2017-08-23T03:12:26.854Z,94469.97
2017-08-23T03:14:54.538Z,94466.17
2017-08-23T03:17:22.288Z,94465.80
2017-08-23T03:19:49.961Z,94460.81
2017-08-23T03:22:17.630Z,94464.77
2017-08-23T03:24:45.390Z,94466.61
2017-08-23T03:27:13.068Z,94465.53
2017-08-23T03:29:40.837Z,94465.50
2017-08-23T03:32:08.544Z,94466.65
2017-08-23T03:34:36.412Z,94468.37
2017-08-23T03:37:04.393Z,94465.48
2017-08-23T03:39:32.140Z,94465.23
2017-08-23T03:41:59.858Z,94465.06
2017-08-23T03:44:27.597Z,94468.72
2017-08-23T03:46:55.494Z,94474.86
2017-08-23T03:49:23.271Z,94477.48
2017-08-23T03:51:50.992Z,94476.27
2017-08-23T03:54:18.706Z,94475.20
2017-08-23T03:56:46.428Z,94477.08
2017-08-23T03:59:14.103Z,94479.38
2017-08-23T04:01:41.847Z,94478.16
2017-08-23T04:04:09.582Z,94479.28
2017-08-23T04:06:37.411Z,94490.77
2017-08-23T04:09:05.228Z,94490.25
2017-08-23T04:11:32.988Z,94494.39
2017-08-23T04:14:00.910Z,94491.75
2017-08-23T04:16:28.776Z,94499.69
2017-08-23T04:18:56.628Z,94504.34
2017-08-23T04:21:24.405Z,94501.35
2017-08-23T04:23:52.104Z,94503.77
2017-08-23T04:26:19.849Z,94499.69
2017-08-23T04:28:47.538Z,94513.63
2017-08-23T04:31:15.270Z,94510.67
2017-08-23T04:33:42.980Z,94506.28
2017-08-23T04:36:10.663Z,94509.06
2017-08-23T04:38:38.389Z,94511.16
2017-08-23T04:41:06.113Z,94511.14
2017-08-23T04:43:33.950Z,94513.55
2017-08-23T04:46:01.674Z,94511.94
2017-08-23T04:48:29.375Z,94516.94
2017-08-23T04:50:57.099Z,94513.52
2017-08-23T04:53:24.794Z,94517.97
2017-08-23T04:55:52.514Z,94518.14
2017-08-23T04:58:20.209Z,94516.13
2017-08-23T05:00:47.934Z,94521.44
2017-08-23T05:03:15.710Z,94518.02
2017-08-23T05:05:43.444Z,94524.91
2017-08-23T05:08:11.221Z,94521.14
2017-08-23T05:10:38.936Z,94522.34
2017-08-23T05:13:06.659Z,94521.69
2017-08-23T05:15:34.485Z,94518.52
2017-08-23T05:18:02.244Z,94516.55
2017-08-23T05:20:29.945Z,94517.31
2017-08-23T05:22:57.675Z,94522.67
2017-08-23T05:25:25.376Z,94521.66
2017-08-23T05:27:53.170Z,94520.21
2017-08-23T05:30:20.869Z,94519.23
2017-08-23T05:32:48.634Z,94525.41
2017-08-23T05:35:16.396Z,94515.58
2017-08-23T05:37:44.135Z,94524.19
2017-08-23T05:40:11.934Z,94524.41
2017-08-23T05:42:39.704Z,94523.36
2017-08-23T05:45:07.456Z,94522.08
2017-08-23T05:47:35.175Z,94518.52
2017-08-23T05:50:04.084Z,94521.77
2017-08-23T05:52:31.820Z,94524.78
2017-08-23T05:54:59.607Z,94524.02
2017-08-23T05:57:27.377Z,94522.77
2017-08-23T05:59:55.190Z,94528.69
2017-08-23T06:02:22.916Z,94529.09
2017-08-23T06:04:50.719Z,94521.15
2017-08-23T06:07:18.482Z,94525.66
2017-08-23T06:09:46.247Z,94523.47
2017-08-23T06:12:13.999Z,94523.73
2017-08-23T06:14:41.759Z,94524.28
2017-08-23T06:17:09.632Z,94523.91
2017-08-23T06:19:37.356Z,94528.96
2017-08-23T06:22:05.093Z,94524.69
2017-08-23T06:24:33.657Z,94524.31
2017-08-23T06:27:01.406Z,94523.48
2017-08-23T06:29:29.177Z,94518.83
2017-08-23T06:31:56.903Z,94518.42
2017-08-23T06:34:24.602Z,94515.88
2017-08-23T06:36:52.413Z,94522.35
2017-08-23T06:39:20.172Z,94521.28
2017-08-23T06:41:47.926Z,94520.02
2017-08-23T06:44:15.652Z,94518.27
2017-08-23T06:46:43.401Z,94515.84
2017-08-23T06:49:11.151Z,94512.80
2017-08-23T06:51:38.875Z,94516.72
2017-08-23T06:54:06.681Z,94517.05
2017-08-23T06:56:34.399Z,94512.86
2017-08-23T06:59:02.160Z,94509.98
2017-08-23T07:01:29.870Z,94503.88
2017-08-23T07:03:57.650Z,94509.12
2017-08-23T07:06:25.343Z,94501.42
2017-08-23T07:08:53.063Z,94505.31
2017-08-23T07:11:20.821Z,94501.45
2017-08-23T07:13:48.576Z,94501.23
2017-08-23T07:16:16.341Z,94498.13
2017-08-23T07:18:44.053Z,94492.59
2017-08-23T07:21:11.826Z,94495.88
2017-08-23T07:23:39.629Z,94492.86
2017-08-23T07:26:07.423Z,94494.34
2017-08-23T07:28:35.187Z,94495.22
2017-08-23T07:31:02.985Z,94496.77
2017-08-23T07:33:30.765Z,94500.52
2017-08-23T07:35:58.489Z,94495.06
2017-08-23T07:38:26.223Z,94492.83
2017-08-23T07:40:53.991Z,94491.09
2017-08-23T07:43:21.716Z,94492.61
2017-08-23T07:45:49.425Z,94493.17
2017-08-23T07:48:17.182Z,94490.73
2017-08-23T07:50:44.955Z,94487.80
2017-08-23T07:53:12.733Z,94488.77
2017-08-23T07:55:40.658Z,94488.28
2017-08-23T07:58:08.387Z,94491.21
2017-08-23T08:00:36.098Z,94488.50
2017-08-23T08:03:03.877Z,94487.88
2017-08-23T08:05:31.623Z,94482.17
2017-08-23T08:07:59.371Z,94481.34
2017-08-23T08:10:27.166Z,94481.50
2017-08-23T08:12:54.972Z,94473.69
2017-08-23T08:15:22.697Z,94474.74
2017-08-23T08:17:50.512Z,94477.91
2017-08-23T08:20:18.443Z,94474.56
2017-08-23T08:22:46.202Z,94476.08
2017-08-23T08:25:13.970Z,94474.09
2017-08-23T08:27:42.347Z,94466.34
2017-08-23T08:30:10.354Z,94464.25
2017-08-23T08:32:38.086Z,94460.73
2017-08-23T08:35:05.914Z,94456.48
2017-08-23T08:37:33.680Z,94460.66
2017-08-23T08:40:01.449Z,94453.70
2017-08-23T08:42:29.187Z,94445.63
2017-08-23T08:44:56.886Z,94443.09
2017-08-23T08:47:24.693Z,94436.69
2017-08-23T08:49:52.481Z,94435.66
2017-08-23T08:52:20.197Z,94438.39
2017-08-23T08:54:47.985Z,94435.06
2017-08-23T08:57:15.730Z,94426.53
2017-08-23T08:59:43.463Z,94426.58
2017-08-23T09:02:11.245Z,94419.27
2017-08-23T09:04:39.094Z,94418.92
2017-08-23T09:07:06.786Z,94415.26
2017-08-23T09:09:34.583Z,94422.92
2017-08-23T09:12:03.184Z,94421.78
2017-08-23T09:14:31.351Z,94422.67
2017-08-23T09:16:59.080Z,94416.05
2017-08-23T09:19:26.845Z,94420.83
2017-08-23T09:21:54.590Z,94420.02
2017-08-23T09:24:22.497Z,94420.14
2017-08-23T09:26:50.295Z,94410.52
2017-08-23T09:29:18.073Z,94410.73
2017-08-23T09:31:46.867Z,94413.44
2017-08-23T09:34:14.576Z,94413.30
2017-08-23T09:36:42.329Z,94405.17
2017-08-23T09:39:10.026Z,94410.50
2017-08-23T09:41:37.734Z,94403.80
2017-08-23T09:44:06.612Z,94401.73
2017-08-23T09:46:34.316Z,94402.39
2017-08-23T09:49:02.018Z,94405.98
2017-08-23T09:51:29.778Z,94398.69
2017-08-23T09:53:57.546Z,94403.02
2017-08-23T09:56:25.273Z,94396.66
2017-08-23T09:58:53.054Z,94392.08
2017-08-23T10:01:20.755Z,94392.36
2017-08-23T10:03:48.535Z,94388.65
2017-08-23T10:06:16.264Z,94384.04
2017-08-23T10:08:44.008Z,94385.42
2017-08-23T10:11:11.783Z,94383.08
2017-08-23T10:13:39.550Z,94382.62
2017-08-23T10:16:07.349Z,94379.29
2017-08-23T10:18:35.210Z,94377.13
2017-08-23T10:21:02.985Z,94376.09
2017-08-23T10:23:30.755Z,94378.66
2017-08-23T10:25:58.466Z,94373.43
2017-08-23T10:28:26.243Z,94372.98
2017-08-23T10:30:55.138Z,94369.80
2017-08-23T10:33:23.636Z,94367.09
2017-08-23T10:35:51.383Z,94371.60
2017-08-23T10:38:20.052Z,94363.33
2017-08-23T10:40:47.811Z,94367.50
2017-08-23T10:43:16.329Z,94353.83
2017-08-23T10:45:45.168Z,94345.25
2017-08-23T10:48:12.886Z,94348.23
2017-08-23T10:50:40.687Z,94349.16
2017-08-23T10:53:08.478Z,94344.25
2017-08-23T10:55:36.999Z,94338.66
2017-08-23T10:58:04.793Z,94344.67
2017-08-23T11:00:32.513Z,94339.00
2017-08-23T11:03:00.339Z,94336.16
2017-08-23T11:05:28.058Z,94338.06
2017-08-23T11:07:55.764Z,94337.63
2017-08-23T11:10:23.539Z,94336.53
2017-08-23T11:12:51.294Z,94332.88
2017-08-23T11:15:18.995Z,94335.49
2017-08-23T11:17:46.755Z,94329.00
2017-08-23T11:20:14.488Z,94331.62
2017-08-23T11:22:42.207Z,94327.83
2017-08-23T11:25:09.960Z,94328.04
2017-08-23T11:27:37.717Z,94320.83
2017-08-23T11:30:06.535Z,94319.56
2017-08-23T11:32:34.404Z,94321.30
2017-08-23T11:35:02.211Z,94315.06
2017-08-23T11:37:29.936Z,94318.48
2017-08-23T11:39:57.752Z,94321.15
2017-08-23T11:42:25.750Z,94323.55
2017-08-23T11:44:53.466Z,94323.75
2017-08-23T11:47:21.233Z,94314.58
2017-08-23T11:49:48.989Z,94316.91
2017-08-23T11:52:16.731Z,94318.97
2017-08-23T11:54:44.435Z,94321.58
2017-08-23T11:57:12.204Z,94311.74
2017-08-23T11:59:39.982Z,94314.52
2017-08-23T12:02:07.680Z,94309.62
2017-08-23T12:04:35.440Z,94305.36
2017-08-23T12:07:03.244Z,94307.04
2017-08-23T12:09:31.093Z,94313.38
2017-08-23T12:11:58.869Z,94309.24
2017-08-23T12:14:26.643Z,94306.65
2017-08-23T12:16:54.780Z,94303.84
2017-08-23T12:19:22.567Z,94303.74
2017-08-23T12:21:50.325Z,94301.09
2017-08-23T12:24:18.086Z,94297.59
2017-08-23T12:26:45.806Z,94296.95
2017-08-23T12:29:13.594Z,94293.70
2017-08-23T12:31:41.311Z,94297.93
2017-08-23T12:34:09.082Z,94288.25
2017-08-23T12:36:36.782Z,94291.34
2017-08-23T12:39:04.578Z,94285.56
2017-08-23T12:41:32.403Z,94279.45
2017-08-23T12:44:00.236Z,94276.58
2017-08-23T12:46:28.017Z,94281.74
2017-08-23T12:48:55.795Z,94280.64
2017-08-23T12:51:23.541Z,94272.70
2017-08-23T12:53:51.345Z,94264.05
2017-08-23T12:56:19.145Z,94264.03
2017-08-23T12:58:46.842Z,94262.88
2017-08-23T13:01:14.552Z,94258.64
2017-08-23T13:03:42.306Z,94257.70
2017-08-23T13:06:10.013Z,94262.11
2017-08-23T13:08:37.784Z,94262.13
2017-08-23T13:11:05.495Z,94261.29
2017-08-23T13:13:33.201Z,94256.05
2017-08-23T13:16:01.029Z,94255.31
2017-08-23T13:18:29.066Z,94255.06
2017-08-23T13:20:56.810Z,94251.33
2017-08-23T13:23:24.541Z,94244.48
2017-08-23T13:25:52.326Z,94255.68
2017-08-23T13:28:20.053Z,94241.27
2017-08-23T13:30:47.812Z,94249.17
2017-08-23T13:33:15.564Z,94248.05
2017-08-23T13:35:43.316Z,94250.65
2017-08-23T13:38:11.134Z,94243.69
2017-08-23T13:40:38.885Z,94250.81
2017-08-23T13:43:07.375Z,94252.86
2017-08-23T13:45:35.158Z,94250.31
2017-08-23T13:48:02.936Z,94242.12
2017-08-23T13:50:30.720Z,94241.22
2017-08-23T13:52:58.500Z,94243.39
2017-08-23T13:55:26.232Z,94234.62
2017-08-23T13:57:54.125Z,94236.00
2017-08-23T14:00:21.890Z,94235.02
2017-08-23T14:02:49.610Z,94240.94
2017-08-23T14:05:17.464Z,94233.57
2017-08-23T14:07:45.277Z,94242.06
2017-08-23T14:10:12.989Z,94248.44
2017-08-23T14:12:41.434Z,94240.33
2017-08-23T14:15:09.575Z,94244.81
2017-08-23T14:17:38.154Z,94239.33
2017-08-23T14:20:07.422Z,94244.69
2017-08-23T14:22:36.149Z,94235.35
2017-08-23T14:25:04.977Z,94229.59
2017-08-23T14:27:33.856Z,94227.97
2017-08-23T14:30:03.605Z,94230.81
2017-08-23T14:32:31.594Z,94238.25
2017-08-23T14:35:00.699Z,94228.25
2017-08-23T14:37:29.156Z,94235.87
2017-08-23T14:39:56.912Z,94232.59
2017-08-23T14:42:24.711Z,94232.90
2017-08-23T14:44:52.739Z,94224.92
2017-08-23T14:47:20.465Z,94237.75
2017-08-23T14:49:48.203Z,94237.61
2017-08-23T14:52:16.276Z,94238.48
2017-08-23T14:54:44.878Z,94234.59
2017-08-23T14:57:12.604Z,94232.55
2017-08-23T14:59:40.343Z,94223.64
2017-08-23T15:02:08.489Z,94234.27
2017-08-23T15:04:36.236Z,94237.81
2017-08-23T15:07:04.161Z,94233.35
2017-08-23T15:09:32.212Z,94235.75
2017-08-23T15:11:59.993Z,94236.45
2017-08-23T15:14:27.718Z,94233.11
2017-08-23T15:16:55.467Z,94223.52
2017-08-23T15:19:23.234Z,94234.35
2017-08-23T15:21:51.005Z,94227.31
2017-08-23T15:24:18.865Z,94234.20
2017-08-23T15:26:47.872Z,94232.94
2017-08-23T15:29:15.728Z,94230.45
2017-08-23T15:31:43.530Z,94225.89
2017-08-23T15:34:11.239Z,94225.61
2017-08-23T15:36:39.076Z,94228.34
2017-08-23T15:39:06.807Z,94225.09
2017-08-23T15:41:34.785Z,94226.70
2017-08-23T15:44:02.589Z,94220.55
2017-08-23T15:46:30.297Z,94222.13
2017-08-23T15:48:58.074Z,94222.44
2017-08-23T15:51:25.854Z,94221.16
2017-08-23T15:53:53.607Z,94220.17
2017-08-23T15:56:21.350Z,94223.36
2017-08-23T15:58:49.087Z,94222.86
2017-08-23T16:01:16.930Z,94218.34
2017-08-23T16:03:44.833Z,94218.67
2017-08-23T16:06:12.599Z,94209.73
2017-08-23T16:08:41.626Z,94219.30
2017-08-23T16:11:09.709Z,94218.81
2017-08-23T16:13:37.497Z,94216.99
2017-08-23T16:16:05.204Z,94215.34
2017-08-23T16:18:32.930Z,94222.45
2017-08-23T16:21:00.688Z,94219.97
2017-08-23T16:23:28.466Z,94218.03
2017-08-23T16:25:56.279Z,94221.19
2017-08-23T16:28:24.673Z,94224.91
2017-08-23T16:30:52.438Z,94225.67
2017-08-23T16:33:20.242Z,94235.94
2017-08-23T16:35:48.001Z,94237.22
2017-08-23T16:38:15.798Z,94234.27
2017-08-23T16:40:43.505Z,94241.23
2017-08-23T16:43:12.369Z,94244.52
2017-08-23T16:45:40.121Z,94245.49
2017-08-23T16:48:07.871Z,94251.09
2017-08-23T16:50:35.658Z,94249.80
2017-08-23T16:53:03.393Z,94247.63
2017-08-23T16:55:31.211Z,94250.94
2017-08-23T16:57:59.185Z,94256.23
2017-08-23T17:00:27.083Z,94260.33
2017-08-23T17:02:54.825Z,94257.16
2017-08-23T17:05:22.582Z,94261.66
2017-08-23T17:07:50.281Z,94269.57
2017-08-23T17:10:18.017Z,94261.41
2017-08-23T17:12:45.784Z,94264.19
2017-08-23T17:15:13.563Z,94258.12
2017-08-23T17:17:41.377Z,94262.23
2017-08-23T17:20:09.201Z,94267.77
2017-08-23T17:22:36.973Z,94273.06
2017-08-23T17:25:04.874Z,94269.77
2017-08-23T17:27:32.740Z,94267.92
2017-08-23T17:30:00.652Z,94268.50
2017-08-23T17:32:28.387Z,94274.87
2017-08-23T17:34:56.189Z,94273.33
2017-08-23T17:37:24.133Z,94282.33
2017-08-23T17:39:51.926Z,94283.13
2017-08-23T17:42:19.793Z,94286.47
2017-08-23T17:44:47.544Z,94280.08
2017-08-23T17:47:16.030Z,94284.23
2017-08-23T17:49:43.877Z,94287.59
2017-08-23T17:52:11.711Z,94290.48
2017-08-23T17:54:39.477Z,94299.86
2017-08-23T17:57:07.248Z,94301.47
2017-08-23T17:59:35.060Z,94302.56
2017-08-23T18:02:02.980Z,94302.53
2017-08-23T18:04:30.855Z,94312.95
2017-08-23T18:06:58.654Z,94312.30
2017-08-23T18:09:26.475Z,94313.09
2017-08-23T18:11:54.528Z,94317.83
2017-08-23T18:14:22.381Z,94325.33
2017-08-23T18:16:50.201Z,94328.61
2017-08-23T18:19:18.034Z,94326.89
2017-08-23T18:21:46.760Z,94328.34
2017-08-23T18:24:14.505Z,94326.48
2017-08-23T18:26:42.405Z,94331.37
2017-08-23T18:29:10.222Z,94338.59
2017-08-23T18:31:38.076Z,94338.73
2017-08-23T18:34:06.104Z,94338.18
2017-08-23T18:36:33.977Z,94333.45
2017-08-23T18:39:01.791Z,94339.81
2017-08-23T18:41:29.602Z,94346.91
2017-08-23T18:43:57.406Z,94349.23
2017-08-23T18:46:25.207Z,94349.64
2017-08-23T18:48:52.977Z,94353.87
2017-08-23T18:51:20.723Z,94352.82
2017-08-23T18:53:48.478Z,94361.31
2017-08-23T18:56:16.277Z,94367.63
2017-08-23T18:58:44.101Z,94366.77
2017-08-23T19:01:11.854Z,94365.98
2017-08-23T19:03:39.641Z,94369.15
2017-08-23T19:06:07.575Z,94369.50
2017-08-23T19:08:35.378Z,94374.45
2017-08-23T19:11:03.090Z,94373.01
2017-08-23T19:13:30.850Z,94376.13
2017-08-23T19:15:58.694Z,94374.65
2017-08-23T19:18:26.491Z,94377.63
2017-08-23T19:20:54.264Z,94372.95
2017-08-23T19:23:22.075Z,94379.48
2017-08-23T19:25:49.922Z,94384.31
2017-08-23T19:28:17.651Z,94384.30
2017-08-23T19:30:45.578Z,94379.91
2017-08-23T19:33:13.327Z,94380.40
2017-08-23T19:35:41.137Z,94387.60
2017-08-23T19:38:09.185Z,94386.97
2017-08-23T20:16:08.394Z,94403.98
2017-08-23T20:18:36.164Z,94402.86
2017-08-23T20:21:04.135Z,94403.19
2017-08-23T20:23:31.989Z,94409.10
2017-08-23T20:26:02.006Z,94411.23
2017-08-23T20:28:31.450Z,94416.70
2017-08-23T20:30:59.252Z,94412.73
2017-08-23T20:33:27.072Z,94414.48
2017-08-23T20:35:58.531Z,94418.78
2017-08-23T20:38:27.546Z,94421.47
2017-08-23T20:40:55.327Z,94418.12
2017-08-23T20:43:23.162Z,94418.63
2017-08-23T20:45:51.023Z,94414.40
2017-08-23T20:48:18.836Z,94420.45
2017-08-23T20:50:46.749Z,94416.33
2017-08-23T20:53:14.562Z,94420.38
2017-08-23T20:55:42.318Z,94425.97
2017-08-23T20:58:10.133Z,94433.11
2017-08-23T21:00:38.275Z,94434.66
2017-08-23T21:03:06.791Z,94431.29
2017-08-23T21:05:34.546Z,94432.56
2017-08-23T21:08:03.617Z,94436.59
2017-08-23T21:10:31.410Z,94435.65
2017-08-23T21:13:00.536Z,94442.20
2017-08-23T21:15:28.248Z,94444.09
2017-08-23T21:17:57.971Z,94444.66
2017-08-23T21:20:26.517Z,94448.22
2017-08-23T21:22:55.222Z,94442.51
2017-08-23T21:25:23.082Z,94445.09
2017-08-23T21:27:50.838Z,94444.47
2017-08-23T21:30:19.492Z,94454.76
2017-08-23T21:32:47.283Z,94453.25
2017-08-23T21:35:15.067Z,94449.59
2017-08-23T21:37:43.779Z,94452.45
2017-08-23T21:40:11.604Z,94455.05
2017-08-23T21:42:39.527Z,94461.64
2017-08-23T21:45:07.397Z,94452.28
2017-08-23T21:47:35.312Z,94458.34
2017-08-23T21:50:03.151Z,94457.17
2017-08-23T21:52:30.862Z,94456.33
2017-08-23T21:54:58.595Z,94461.55
2017-08-23T21:57:26.381Z,94456.92
2017-08-23T21:59:54.176Z,94456.52
2017-08-23T22:02:22.023Z,94460.00
2017-08-23T22:04:49.864Z,94462.34
2017-08-23T22:07:17.732Z,94456.98
2017-08-23T22:09:45.822Z,94460.39
2017-08-23T22:12:14.472Z,94460.29
2017-08-23T22:14:42.188Z,94458.25
2017-08-23T22:17:10.055Z,94454.05
2017-08-23T22:19:37.795Z,94456.43
2017-08-23T22:22:05.614Z,94456.03
2017-08-23T22:24:33.423Z,94454.34
2017-08-23T22:27:01.306Z,94455.17
2017-08-23T22:29:29.050Z,94458.52
2017-08-23T22:31:56.839Z,94460.93
2017-08-23T22:34:24.623Z,94456.39
2017-08-23T22:36:52.339Z,94457.42
2017-08-23T22:39:20.243Z,94462.24
2017-08-23T22:41:48.040Z,94464.86
2017-08-23T22:44:15.831Z,94466.64
2017-08-23T22:46:43.557Z,94470.27
2017-08-23T22:49:11.373Z,94459.34
2017-08-23T22:51:39.165Z,94465.60
2017-08-23T22:54:06.891Z,94466.98
2017-08-23T22:56:34.668Z,94471.45
2017-08-23T22:59:02.504Z,94464.00
2017-08-23T23:01:30.248Z,94463.12
2017-08-23T23:03:57.995Z,94461.80
2017-08-23T23:06:25.810Z,94464.11
2017-08-23T23:08:53.532Z,94469.19
2017-08-23T23:11:22.127Z,94465.42
2017-08-23T23:13:49.861Z,94460.08
2017-08-23T23:16:17.712Z,94463.95
2017-08-23T23:18:45.525Z,94461.63
2017-08-23T23:21:13.364Z,94465.84
2017-08-23T23:23:41.116Z,94454.47
2017-08-23T23:26:08.864Z,94461.45
2017-08-23T23:28:36.643Z,94456.43
2017-08-23T23:31:17.459Z,94464.16
2017-08-23T23:33:45.487Z,94465.88
2017-08-23T23:36:13.216Z,94461.97
2017-08-23T23:38:40.995Z,94463.92
2017-08-23T23:41:09.725Z,94465.96
2017-08-23T23:43:37.465Z,94464.09
2017-08-23T23:46:06.459Z,94466.02
2017-08-23T23:48:34.889Z,94460.74
2017-08-23T23:51:02.645Z,94463.33
2017-08-23T23:53:30.458Z,94464.86
2017-08-23T23:56:00.018Z,94470.70
2017-08-23T23:58:28.871Z,94477.09
